Time;durP1;ratioP1;P1;durP2;ratioP2;P2;SDS_P1;SDS_P2;PMS_P1;PMS_P2;Temp;Humidity;BMP_temperature;BMP_pressure;BME280_temperature;BME280_humidity;BME280_pressure;Samples;Min_cycle;Max_cycle;Signal;HPM_P1;HPM_P2
2023/11/30 00:00:58;;;;;;;7.03;5.03;;;-0.50;99.90;;;;;;5063493;28;20032;-87
2023/11/30 00:03:24;;;;;;;9.33;4.97;;;-0.50;99.90;;;;;;5064629;28;20036;-87
2023/11/30 00:05:49;;;;;;;6.33;4.10;;;-0.50;99.90;;;;;;5063115;28;20028;-87
2023/11/30 00:08:15;;;;;;;6.63;4.30;;;-0.50;99.90;;;;;;5063890;28;20087;-87
2023/11/30 00:10:40;;;;;;;6.07;3.87;;;-0.50;99.90;;;;;;5065161;28;20025;-87
2023/11/30 00:13:06;;;;;;;6.27;4.20;;;-0.50;99.90;;;;;;5062433;28;20129;-87
2023/11/30 00:15:31;;;;;;;7.47;4.13;;;-0.50;99.90;;;;;;5059267;28;20025;-87
2023/11/30 00:17:57;;;;;;;7.97;4.13;;;-0.50;99.90;;;;;;5059728;28;20170;-87
2023/11/30 00:20:22;;;;;;;6.03;4.03;;;-0.50;99.90;;;;;;5059767;28;20048;-88
2023/11/30 00:22:48;;;;;;;7.60;4.03;;;-0.50;99.90;;;;;;5059702;28;20471;-88
2023/11/30 00:25:13;;;;;;;8.93;5.10;;;-0.50;99.90;;;;;;5059547;28;21036;-88
2023/11/30 00:27:39;;;;;;;5.70;4.20;;;-0.50;99.90;;;;;;5058668;28;20029;-88
2023/11/30 00:30:06;;;;;;;5.70;3.97;;;-0.40;99.90;;;;;;5058454;28;20021;-87
2023/11/30 00:32:32;;;;;;;6.63;3.80;;;-0.50;99.90;;;;;;5059068;28;20025;-87
2023/11/30 00:34:57;;;;;;;8.10;4.23;;;-0.40;99.90;;;;;;5057883;28;20098;-88
2023/11/30 00:37:22;;;;;;;5.43;3.53;;;-0.40;99.90;;;;;;5059521;28;20074;-88
2023/11/30 00:39:48;;;;;;;6.07;4.07;;;-0.40;99.90;;;;;;5058420;28;20040;-87
2023/11/30 00:42:13;;;;;;;6.93;3.70;;;-0.40;99.90;;;;;;5059327;28;20340;-88
2023/11/30 00:44:39;;;;;;;5.47;3.40;;;-0.40;99.90;;;;;;5063935;28;20028;-88
2023/11/30 00:47:04;;;;;;;5.43;3.27;;;-0.40;99.90;;;;;;5065926;28;20035;-88
2023/11/30 00:49:30;;;;;;;5.47;3.23;;;-0.40;99.90;;;;;;5082965;28;20032;-87
2023/11/30 00:51:55;;;;;;;5.97;3.50;;;-0.40;99.90;;;;;;5066864;28;20032;-88
2023/11/30 00:54:21;;;;;;;7.53;3.40;;;-0.40;99.90;;;;;;5061433;28;21377;-88
2023/11/30 00:56:47;;;;;;;4.83;3.10;;;-0.40;99.90;;;;;;5062416;28;20066;-88
2023/11/30 00:59:12;;;;;;;6.57;3.67;;;-0.40;99.90;;;;;;5065069;28;20067;-87
2023/11/30 01:01:37;;;;;;;6.27;3.50;;;-0.30;99.90;;;;;;5071410;28;20515;-87
2023/11/30 01:04:03;;;;;;;5.23;3.20;;;-0.30;99.90;;;;;;5070065;28;20047;-88
2023/11/30 01:06:29;;;;;;;7.40;3.93;;;-0.30;99.90;;;;;;5066150;28;20048;-88
2023/11/30 01:08:54;;;;;;;8.60;4.60;;;-0.30;99.90;;;;;;5062571;28;20051;-87
2023/11/30 01:11:20;;;;;;;8.67;5.17;;;-0.30;99.90;;;;;;5062430;28;20030;-87
2023/11/30 01:13:45;;;;;;;8.73;5.03;;;-0.30;99.90;;;;;;5062114;28;20024;-87
2023/11/30 01:16:11;;;;;;;7.60;4.43;;;-0.30;99.90;;;;;;5061942;28;20029;-88
2023/11/30 01:18:36;;;;;;;7.57;4.23;;;-0.40;99.90;;;;;;5062290;28;20493;-87
2023/11/30 01:21:02;;;;;;;8.97;4.47;;;-0.40;99.90;;;;;;5062562;28;20031;-88
2023/11/30 01:23:28;;;;;;;5.63;4.00;;;-0.40;99.90;;;;;;5062430;28;20101;-87
2023/11/30 01:25:54;;;;;;;6.97;4.20;;;-0.40;99.90;;;;;;5062108;28;20392;-87
2023/11/30 01:28:19;;;;;;;5.20;3.60;;;-0.40;99.90;;;;;;5062690;28;20032;-88
2023/11/30 01:30:45;;;;;;;7.10;4.30;;;-0.40;99.90;;;;;;5062151;28;20089;-88
2023/11/30 01:33:10;;;;;;;5.93;3.70;;;-0.40;99.90;;;;;;5061586;28;20107;-87
2023/11/30 01:35:36;;;;;;;6.80;3.97;;;-0.40;99.90;;;;;;5061119;28;20626;-88
2023/11/30 01:38:02;;;;;;;6.10;3.40;;;-0.50;99.90;;;;;;5060820;28;20082;-87
2023/11/30 01:40:27;;;;;;;5.47;3.60;;;-0.40;99.90;;;;;;5061545;28;20029;-87
2023/11/30 01:42:53;;;;;;;5.60;3.70;;;-0.50;99.90;;;;;;5062348;28;20147;-87
2023/11/30 01:45:18;;;;;;;6.53;3.50;;;-0.50;99.90;;;;;;5067748;28;20028;-87
2023/11/30 01:47:44;;;;;;;5.00;3.50;;;-0.50;99.90;;;;;;5061818;28;20078;-88
2023/11/30 01:50:10;;;;;;;6.03;3.70;;;-0.60;99.90;;;;;;5061774;28;20111;-87
2023/11/30 01:52:36;;;;;;;6.20;3.87;;;-0.60;99.90;;;;;;5061699;28;20842;-88
2023/11/30 01:55:02;;;;;;;6.50;3.83;;;-0.70;99.90;;;;;;5061456;28;20033;-87
2023/11/30 01:57:29;;;;;;;7.00;3.80;;;-0.70;99.90;;;;;;5061072;28;20435;-87
2023/11/30 01:59:55;;;;;;;5.77;4.00;;;-0.70;99.90;;;;;;5061024;28;20024;-87
2023/11/30 02:02:22;;;;;;;5.50;3.50;;;-0.70;99.90;;;;;;5061379;28;20025;-87
2023/11/30 02:04:51;;;;;;;7.63;3.53;;;-0.70;99.90;;;;;;5061590;28;20566;-88
2023/11/30 02:07:17;;;;;;;5.47;3.60;;;-0.70;99.90;;;;;;5061268;28;20420;-88
2023/11/30 02:09:43;;;;;;;7.57;3.93;;;-0.70;99.90;;;;;;5062061;28;20031;-88
2023/11/30 02:12:08;;;;;;;6.30;4.10;;;-0.70;99.90;;;;;;5061593;28;20483;-87
2023/11/30 02:14:35;;;;;;;5.40;3.60;;;-0.80;99.90;;;;;;5061091;28;20044;-88
2023/11/30 02:17:02;;;;;;;6.00;3.60;;;-0.80;99.90;;;;;;5060392;28;20115;-88
2023/11/30 02:19:28;;;;;;;6.17;3.90;;;-0.80;99.90;;;;;;5060736;28;20406;-88
2023/11/30 02:21:53;;;;;;;7.23;3.63;;;-0.80;99.90;;;;;;5061502;28;20763;-87
2023/11/30 02:24:19;;;;;;;5.10;3.33;;;-0.90;99.90;;;;;;5061346;28;20120;-88
2023/11/30 02:26:44;;;;;;;6.43;4.00;;;-0.90;99.90;;;;;;5061325;28;20020;-87
2023/11/30 02:29:12;;;;;;;5.20;3.33;;;-0.90;99.90;;;;;;5060302;28;20079;-88
2023/11/30 02:31:38;;;;;;;5.60;3.50;;;-0.90;99.90;;;;;;5061113;28;20039;-88
2023/11/30 02:34:03;;;;;;;4.03;2.97;;;-0.90;99.90;;;;;;5060139;28;20024;-87
2023/11/30 02:36:29;;;;;;;5.37;3.00;;;-0.90;99.90;;;;;;5059623;28;20024;-88
2023/11/30 02:38:54;;;;;;;5.83;3.47;;;-1.00;99.90;;;;;;5059440;28;20063;-88
2023/11/30 02:41:20;;;;;;;6.13;3.37;;;-0.90;99.90;;;;;;5060532;28;20028;-88
2023/11/30 02:43:45;;;;;;;4.73;2.97;;;-0.90;99.90;;;;;;5061174;28;20028;-88
2023/11/30 02:46:11;;;;;;;5.57;3.00;;;-1.00;99.90;;;;;;5062873;28;20037;-87
2023/11/30 02:48:37;;;;;;;4.87;3.27;;;-0.90;99.90;;;;;;5061520;28;20325;-87
2023/11/30 02:51:03;;;;;;;4.20;2.97;;;-0.90;99.90;;;;;;5061116;28;20040;-87
2023/11/30 02:53:28;;;;;;;4.73;2.93;;;-0.90;99.90;;;;;;5060504;28;20021;-87
2023/11/30 02:55:54;;;;;;;6.40;3.20;;;-0.90;99.90;;;;;;5059736;28;20762;-87
2023/11/30 02:58:19;;;;;;;5.03;3.50;;;-0.90;99.90;;;;;;5060697;28;20024;-88
2023/11/30 03:00:47;;;;;;;5.30;3.37;;;-0.90;99.90;;;;;;5060344;28;20058;-88
2023/11/30 03:03:13;;;;;;;5.87;3.47;;;-1.00;99.90;;;;;;5064952;28;20142;-87
2023/11/30 03:05:38;;;;;;;6.33;3.77;;;-1.00;99.90;;;;;;5065846;28;20028;-88
2023/11/30 03:08:04;;;;;;;4.67;3.17;;;-1.00;99.90;;;;;;5066887;28;20028;-88
2023/11/30 03:10:30;;;;;;;4.97;3.10;;;-1.00;99.90;;;;;;5066987;28;20024;-87
2023/11/30 03:12:55;;;;;;;5.57;3.73;;;-1.00;99.90;;;;;;5066400;28;20126;-87
2023/11/30 03:15:22;;;;;;;5.13;3.30;;;-1.00;99.90;;;;;;5063970;28;20431;-88
2023/11/30 03:17:47;;;;;;;6.80;3.53;;;-1.00;99.90;;;;;;5060411;28;20024;-87
2023/11/30 03:20:13;;;;;;;4.80;3.33;;;-1.00;99.90;;;;;;5059624;28;20066;-88
2023/11/30 03:22:38;;;;;;;6.60;3.03;;;-0.90;99.90;;;;;;5059269;28;20036;-88
2023/11/30 03:25:05;;;;;;;6.53;3.40;;;-0.90;99.90;;;;;;5059088;28;20154;-88
2023/11/30 03:27:30;;;;;;;5.60;3.20;;;-0.90;99.90;;;;;;5060535;28;20036;-87
2023/11/30 03:29:56;;;;;;;6.03;3.33;;;-0.90;99.90;;;;;;5060110;28;20021;-88
2023/11/30 03:32:21;;;;;;;12.50;4.13;;;-0.90;99.90;;;;;;5060873;28;20029;-88
2023/11/30 03:34:47;;;;;;;5.10;3.40;;;-0.90;99.90;;;;;;5060820;28;20033;-87
2023/11/30 03:37:12;;;;;;;5.33;3.37;;;-0.90;99.90;;;;;;5061773;28;20398;-89
2023/11/30 03:39:38;;;;;;;4.90;3.10;;;-0.90;99.90;;;;;;5066296;28;20017;-88
2023/11/30 03:42:04;;;;;;;5.97;3.37;;;-0.80;99.90;;;;;;5077382;28;20077;-87
2023/11/30 03:44:29;;;;;;;6.33;3.40;;;-0.90;99.90;;;;;;5064630;28;20417;-88
2023/11/30 03:46:55;;;;;;;6.10;2.97;;;-0.80;99.90;;;;;;5058948;28;20032;-88
2023/11/30 03:49:20;;;;;;;5.27;3.33;;;-0.80;99.90;;;;;;5059767;28;20028;-87
2023/11/30 03:51:46;;;;;;;5.47;3.47;;;-0.80;99.90;;;;;;5060441;28;20029;-89
2023/11/30 03:54:11;;;;;;;5.30;2.93;;;-0.80;99.90;;;;;;5060181;28;20032;-88
2023/11/30 03:56:37;;;;;;;4.37;3.03;;;-0.80;99.90;;;;;;5059441;28;20043;-88
2023/11/30 03:59:02;;;;;;;4.20;3.10;;;-0.80;99.90;;;;;;5059257;28;20093;-88
2023/11/30 04:01:28;;;;;;;4.97;3.30;;;-0.80;99.90;;;;;;5059332;28;20048;-88
2023/11/30 04:03:54;;;;;;;5.40;3.20;;;-0.80;99.90;;;;;;5059685;28;20079;-88
2023/11/30 04:06:23;;;;;;;6.33;3.37;;;-0.70;99.90;;;;;;5058888;28;20633;-88
2023/11/30 04:08:51;;;;;;;4.77;3.00;;;-0.70;99.90;;;;;;5059554;28;20031;-88
2023/11/30 04:11:17;;;;;;;5.23;3.43;;;-0.70;99.90;;;;;;5059610;28;20024;-88
2023/11/30 04:13:47;;;;;;;6.17;3.70;;;-0.70;99.90;;;;;;5059833;28;20473;-88
2023/11/30 04:16:16;;;;;;;6.07;3.60;;;-0.70;99.90;;;;;;5059796;28;21416;-87
2023/11/30 04:18:42;;;;;;;6.43;3.87;;;-0.70;99.90;;;;;;5059537;28;20564;-88
2023/11/30 04:21:08;;;;;;;5.43;3.33;;;-0.70;99.90;;;;;;5059781;28;20029;-88
2023/11/30 04:23:34;;;;;;;7.70;3.60;;;-0.70;99.90;;;;;;5058635;28;20066;-88
2023/11/30 04:26:00;;;;;;;6.13;3.43;;;-0.60;99.90;;;;;;5057258;28;20051;-88
2023/11/30 04:28:25;;;;;;;6.07;4.00;;;-0.60;99.90;;;;;;5059480;28;20074;-88
2023/11/30 04:30:52;;;;;;;4.93;3.57;;;-0.60;99.90;;;;;;5062692;28;20016;-88
2023/11/30 04:33:18;;;;;;;6.57;3.90;;;-0.60;99.90;;;;;;5062259;28;20071;-88
2023/11/30 04:35:43;;;;;;;9.00;3.90;;;-0.60;99.90;;;;;;5061917;28;20088;-88
2023/11/30 04:38:09;;;;;;;6.50;4.47;;;-0.60;99.90;;;;;;5062507;28;20028;-89
2023/11/30 04:40:34;;;;;;;7.67;3.50;;;-0.60;99.90;;;;;;5062236;28;20082;-88
2023/11/30 04:43:00;;;;;;;4.80;3.33;;;-0.60;99.90;;;;;;5062372;28;20023;-87
2023/11/30 04:45:25;;;;;;;8.63;4.10;;;-0.60;99.90;;;;;;5061817;28;21391;-88
2023/11/30 04:47:51;;;;;;;5.30;3.03;;;-0.60;99.90;;;;;;5062183;28;20177;-88
2023/11/30 04:50:16;;;;;;;6.97;3.60;;;-0.60;99.90;;;;;;5061061;28;20810;-88
2023/11/30 04:52:42;;;;;;;6.50;2.93;;;-0.60;99.90;;;;;;5062612;28;20024;-88
2023/11/30 04:55:08;;;;;;;6.03;3.20;;;-0.60;99.90;;;;;;5062800;28;20028;-88
2023/11/30 04:57:33;;;;;;;5.60;3.40;;;-0.60;99.90;;;;;;5062623;28;20490;-88
2023/11/30 04:59:59;;;;;;;4.90;3.60;;;-0.50;99.90;;;;;;5062999;28;20056;-88
2023/11/30 05:02:25;;;;;;;5.47;3.33;;;-0.50;99.90;;;;;;5064086;28;20082;-87
2023/11/30 05:04:50;;;;;;;6.60;3.67;;;-0.50;99.90;;;;;;5072366;28;20111;-87
2023/11/30 05:07:16;;;;;;;7.47;4.00;;;-0.50;99.90;;;;;;5076850;28;20047;-87
2023/11/30 05:09:42;;;;;;;5.40;3.60;;;-0.50;99.90;;;;;;5073636;28;20025;-88
2023/11/30 05:12:07;;;;;;;5.80;3.63;;;-0.50;99.90;;;;;;5062043;28;20506;-88
2023/11/30 05:14:33;;;;;;;5.80;3.97;;;-0.50;99.90;;;;;;5061705;28;20086;-88
2023/11/30 05:16:58;;;;;;;4.87;3.30;;;-0.50;99.90;;;;;;5060921;28;20132;-88
2023/11/30 05:19:24;;;;;;;5.77;3.43;;;-0.50;99.90;;;;;;5061873;28;20098;-88
2023/11/30 05:21:49;;;;;;;18.00;10.00;;;-0.40;99.90;;;;;;5062307;28;20126;-88
2023/11/30 05:24:17;;;;;;;10.50;6.90;;;-0.40;99.90;;;;;;5062351;28;20282;-88
2023/11/30 05:26:42;;;;;;;7.97;3.63;;;-0.40;99.90;;;;;;5061429;28;20028;-88
2023/11/30 05:29:08;;;;;;;5.50;2.90;;;-0.40;99.90;;;;;;5062889;28;20081;-87
2023/11/30 05:31:34;;;;;;;4.50;3.17;;;-0.40;99.90;;;;;;5060599;28;20029;-88
2023/11/30 05:33:59;;;;;;;9.03;8.13;;;-0.40;99.90;;;;;;5062394;28;20067;-88
2023/11/30 05:36:25;;;;;;;7.97;5.13;;;-0.40;99.90;;;;;;5060524;28;20111;-88
2023/11/30 05:38:50;;;;;;;4.37;3.03;;;-0.40;99.90;;;;;;5059988;28;20032;-89
2023/11/30 05:41:16;;;;;;;6.40;3.87;;;-0.40;99.90;;;;;;5059924;28;20028;-88
2023/11/30 05:43:42;;;;;;;5.93;5.33;;;-0.40;99.90;;;;;;5057779;28;20028;-89
2023/11/30 05:46:07;;;;;;;3.67;2.53;;;-0.40;99.90;;;;;;5057848;28;20032;-88
2023/11/30 05:48:33;;;;;;;4.33;2.73;;;-0.40;99.90;;;;;;5059346;28;20032;-88
2023/11/30 05:50:59;;;;;;;5.90;3.57;;;-0.40;99.90;;;;;;5061826;28;20506;-88
2023/11/30 05:53:25;;;;;;;6.30;3.97;;;-0.30;99.90;;;;;;5059984;28;20028;-88
2023/11/30 05:55:51;;;;;;;5.50;2.60;;;-0.30;99.90;;;;;;5058754;28;20028;-88
2023/11/30 05:58:16;;;;;;;4.23;2.40;;;-0.30;99.90;;;;;;5059193;28;20035;-88
2023/11/30 06:00:42;;;;;;;3.53;2.23;;;-0.30;99.90;;;;;;5059515;28;20626;-87
2023/11/30 06:03:08;;;;;;;3.33;2.27;;;-0.20;99.90;;;;;;5059818;28;20029;-88
2023/11/30 06:05:34;;;;;;;5.43;3.60;;;-0.20;99.90;;;;;;5061560;28;20031;-87
2023/11/30 06:07:59;;;;;;;4.63;3.10;;;-0.20;99.90;;;;;;5062580;28;20732;-88
2023/11/30 06:10:25;;;;;;;6.73;4.27;;;-0.20;99.90;;;;;;5060531;28;20029;-87
2023/11/30 06:12:50;;;;;;;5.30;3.40;;;-0.10;99.90;;;;;;5063088;28;20025;-87
2023/11/30 06:15:16;;;;;;;5.03;2.50;;;-0.10;99.90;;;;;;5063231;28;20032;-87
2023/11/30 06:17:41;;;;;;;3.83;2.37;;;0.00;99.90;;;;;;5059684;28;20063;-88
2023/11/30 06:20:10;;;;;;;4.03;2.23;;;0.00;99.90;;;;;;5060484;28;20029;-88
2023/11/30 06:22:36;;;;;;;3.67;2.50;;;0.00;99.90;;;;;;5061036;28;20047;-88
2023/11/30 06:25:01;;;;;;;4.80;2.30;;;0.00;99.90;;;;;;5058874;28;20028;-88
2023/11/30 06:27:27;;;;;;;3.73;2.30;;;0.00;99.90;;;;;;5059861;28;20403;-89
2023/11/30 06:29:52;;;;;;;4.57;2.10;;;0.10;99.90;;;;;;5060731;28;20025;-87
2023/11/30 06:32:20;;;;;;;2.13;1.70;;;0.10;99.90;;;;;;5069025;28;20039;-88
2023/11/30 06:34:46;;;;;;;3.00;2.10;;;0.10;99.90;;;;;;5070720;28;20021;-89
2023/11/30 06:37:11;;;;;;;2.53;1.83;;;0.10;99.90;;;;;;5075790;28;20029;-87
2023/11/30 06:39:41;;;;;;;6.50;1.90;;;0.10;99.90;;;;;;5061692;28;20143;-87
2023/11/30 06:42:06;;;;;;;3.23;1.90;;;0.20;99.90;;;;;;5059668;28;20159;-87
2023/11/30 06:44:32;;;;;;;2.17;1.53;;;0.20;99.90;;;;;;5057894;28;20033;-87
2023/11/30 06:46:57;;;;;;;2.97;1.80;;;0.20;99.90;;;;;;5058031;28;20036;-87
2023/11/30 06:49:23;;;;;;;4.10;2.00;;;0.20;99.90;;;;;;5058485;28;20115;-87
2023/11/30 06:51:48;;;;;;;5.00;2.20;;;0.20;99.90;;;;;;5063655;28;20033;-80
2023/11/30 06:54:14;;;;;;;6.93;4.37;;;0.20;99.90;;;;;;5058086;28;20025;-87
2023/11/30 06:56:40;;;;;;;7.03;3.97;;;0.20;99.90;;;;;;5056882;28;20041;-86
2023/11/30 06:59:05;;;;;;;3.40;2.33;;;0.20;99.90;;;;;;5056342;28;20032;-84
2023/11/30 07:01:31;;;;;;;4.33;3.37;;;0.20;99.90;;;;;;5056230;28;20035;-86
2023/11/30 07:03:56;;;;;;;9.83;8.83;;;0.20;99.90;;;;;;5057341;28;20032;-86
2023/11/30 07:06:22;;;;;;;7.00;4.93;;;0.20;99.90;;;;;;5053614;28;20051;-85
2023/11/30 07:08:49;;;;;;;5.53;3.20;;;0.20;99.90;;;;;;5056217;28;20028;-85
2023/11/30 07:11:14;;;;;;;4.43;2.83;;;0.30;99.90;;;;;;5059177;28;20106;-85
2023/11/30 07:13:40;;;;;;;5.90;2.60;;;0.30;99.90;;;;;;5057437;28;20483;-85
2023/11/30 07:16:07;;;;;;;6.10;3.40;;;0.20;99.90;;;;;;5056721;28;20771;-85
2023/11/30 07:18:33;;;;;;;4.80;2.70;;;0.30;99.90;;;;;;5058458;28;20394;-85
2023/11/30 07:20:59;;;;;;;3.67;2.53;;;0.20;99.90;;;;;;5058290;28;20025;-86
2023/11/30 07:23:24;;;;;;;7.50;5.10;;;0.20;99.90;;;;;;5056393;28;20021;-85
2023/11/30 07:25:50;;;;;;;9.67;4.40;;;0.20;99.90;;;;;;5046608;28;21519;-85
2023/11/30 07:28:15;;;;;;;6.37;3.67;;;0.20;99.90;;;;;;5045903;28;20036;-85
2023/11/30 07:30:42;;;;;;;4.37;3.33;;;0.20;99.90;;;;;;5046185;28;20138;-85
2023/11/30 07:33:08;;;;;;;4.47;2.70;;;0.30;99.90;;;;;;5046538;28;20124;-85
2023/11/30 07:35:38;;;;;;;5.40;3.10;;;0.30;99.90;;;;;;5047258;28;20036;-85
2023/11/30 07:38:05;;;;;;;6.60;3.00;;;0.30;99.90;;;;;;5047384;28;20699;-86
2023/11/30 07:40:32;;;;;;;8.60;3.13;;;0.30;99.90;;;;;;5047449;28;20041;-85
2023/11/30 07:42:58;;;;;;;6.87;2.93;;;0.40;99.90;;;;;;5049251;28;21111;-85
2023/11/30 07:45:24;;;;;;;11.07;3.53;;;0.40;99.90;;;;;;5048765;28;20040;-85
2023/11/30 07:47:49;;;;;;;12.13;3.17;;;0.40;99.90;;;;;;5047330;28;20127;-85
2023/11/30 07:50:16;;;;;;;6.00;2.53;;;0.40;99.90;;;;;;5046552;28;20027;-86
2023/11/30 07:52:42;;;;;;;8.73;2.60;;;0.50;99.90;;;;;;5047175;28;20036;-86
2023/11/30 07:55:08;;;;;;;3.33;2.20;;;0.50;99.90;;;;;;5047548;28;20039;-86
2023/11/30 07:57:33;;;;;;;5.57;2.20;;;0.50;99.90;;;;;;5047113;28;20033;-85
2023/11/30 07:59:59;;;;;;;4.40;1.90;;;0.60;99.90;;;;;;5047128;28;20107;-86
2023/11/30 08:02:25;;;;;;;3.63;2.10;;;0.60;99.90;;;;;;5049669;28;20028;-86
2023/11/30 08:04:50;;;;;;;4.67;2.40;;;0.60;99.90;;;;;;5052281;28;20146;-86
2023/11/30 08:07:16;;;;;;;5.93;2.43;;;0.70;99.90;;;;;;5053754;28;20043;-85
2023/11/30 08:09:41;;;;;;;6.60;2.13;;;0.60;99.90;;;;;;5050772;28;20214;-85
2023/11/30 08:12:07;;;;;;;2.83;1.93;;;0.60;99.90;;;;;;5052540;28;20028;-85
2023/11/30 08:14:32;;;;;;;3.33;2.10;;;0.70;99.90;;;;;;5052302;28;20028;-85
2023/11/30 08:16:58;;;;;;;6.07;2.17;;;0.70;99.90;;;;;;5052562;28;20111;-85
2023/11/30 08:19:23;;;;;;;5.33;2.30;;;0.70;99.90;;;;;;5050688;28;20028;-86
2023/11/30 08:21:49;;;;;;;5.10;2.70;;;0.70;99.90;;;;;;5051481;28;20051;-86
2023/11/30 08:24:14;;;;;;;4.17;2.80;;;0.80;99.90;;;;;;5053788;28;20025;-86
2023/11/30 08:26:41;;;;;;;5.37;3.03;;;0.80;99.90;;;;;;5053047;28;20040;-85
2023/11/30 08:29:08;;;;;;;4.77;3.20;;;0.80;99.90;;;;;;5057758;28;20028;-86
2023/11/30 08:31:36;;;;;;;3.67;2.70;;;0.80;99.90;;;;;;5051019;28;20036;-86
2023/11/30 08:34:02;;;;;;;5.27;2.53;;;0.80;99.90;;;;;;5050726;28;20058;-85
2023/11/30 08:36:28;;;;;;;3.67;2.60;;;0.90;99.90;;;;;;5050482;28;20116;-86
2023/11/30 08:38:53;;;;;;;7.27;3.33;;;0.90;99.90;;;;;;5050596;28;20490;-85
2023/11/30 08:41:20;;;;;;;7.50;3.00;;;0.90;99.90;;;;;;5054645;28;20024;-86
2023/11/30 08:43:46;;;;;;;5.90;3.03;;;0.90;99.90;;;;;;5053733;28;20067;-86
2023/11/30 08:46:12;;;;;;;5.10;3.27;;;0.90;99.90;;;;;;5051617;28;20097;-86
2023/11/30 08:48:37;;;;;;;5.53;2.80;;;1.00;99.90;;;;;;5050594;28;20185;-86
2023/11/30 08:51:03;;;;;;;4.93;2.50;;;1.00;99.90;;;;;;5052444;28;20040;-86
2023/11/30 08:53:29;;;;;;;8.60;3.40;;;1.00;99.90;;;;;;5048380;28;20063;-85
2023/11/30 08:55:54;;;;;;;9.27;3.67;;;1.00;99.90;;;;;;5050478;28;20041;-86
2023/11/30 08:58:21;;;;;;;18.30;3.93;;;1.10;99.90;;;;;;5050822;28;20098;-86
2023/11/30 09:00:47;;;;;;;10.87;4.43;;;1.10;99.90;;;;;;5052011;28;20076;-86
2023/11/30 09:03:12;;;;;;;6.70;3.40;;;1.00;99.90;;;;;;5052799;28;20108;-86
2023/11/30 09:05:38;;;;;;;13.17;3.53;;;1.10;99.90;;;;;;5063751;28;20071;-86
2023/11/30 09:08:04;;;;;;;5.87;3.60;;;1.10;99.90;;;;;;5063872;28;20059;-87
2023/11/30 09:10:30;;;;;;;12.67;4.37;;;1.10;99.90;;;;;;5064367;28;20036;-86
2023/11/30 09:12:55;;;;;;;9.60;4.03;;;1.10;99.90;;;;;;5069013;28;20056;-87
2023/11/30 09:15:21;;;;;;;10.80;4.33;;;1.10;99.90;;;;;;5057051;28;20055;-87
2023/11/30 09:17:46;;;;;;;8.93;4.57;;;1.10;99.90;;;;;;5065685;28;20127;-86
2023/11/30 09:20:12;;;;;;;9.53;4.67;;;1.10;99.90;;;;;;5060819;28;20036;-86
2023/11/30 09:22:38;;;;;;;7.27;4.57;;;1.10;99.90;;;;;;5063809;28;20438;-86
2023/11/30 09:25:04;;;;;;;8.17;4.80;;;1.20;99.90;;;;;;5061705;28;20034;-86
2023/11/30 09:27:32;;;;;;;11.90;4.57;;;1.10;99.90;;;;;;5058991;28;20059;-86
2023/11/30 09:29:57;;;;;;;8.93;4.53;;;1.20;99.90;;;;;;5067935;28;20794;-87
2023/11/30 09:32:23;;;;;;;13.10;6.70;;;1.10;99.90;;;;;;5071595;28;20024;-86
2023/11/30 09:34:49;;;;;;;14.03;8.33;;;1.10;99.90;;;;;;5070969;28;20033;-85
2023/11/30 09:37:14;;;;;;;10.43;5.50;;;1.10;99.90;;;;;;5062965;28;20040;-86
2023/11/30 09:39:41;;;;;;;16.33;5.83;;;1.10;99.90;;;;;;5061475;28;20047;-86
2023/11/30 09:42:09;;;;;;;8.70;5.47;;;1.10;99.90;;;;;;5059802;28;20028;-87
2023/11/30 09:44:34;;;;;;;13.07;5.97;;;1.10;99.90;;;;;;5060505;28;20025;-86
2023/11/30 09:47:00;;;;;;;11.87;5.10;;;1.10;99.90;;;;;;5058360;28;20040;-86
2023/11/30 09:49:26;;;;;;;9.60;4.63;;;1.10;99.90;;;;;;5059355;28;20602;-86
2023/11/30 09:51:52;;;;;;;13.90;5.60;;;1.10;99.90;;;;;;5059474;28;20031;-85
2023/11/30 09:54:19;;;;;;;12.27;6.83;;;1.10;99.90;;;;;;5059398;28;20201;-86
2023/11/30 09:56:45;;;;;;;15.03;6.10;;;1.10;99.90;;;;;;5060557;28;20028;-85
2023/11/30 09:59:11;;;;;;;15.60;6.13;;;1.10;99.90;;;;;;5061010;28;20028;-85
2023/11/30 10:01:39;;;;;;;9.40;5.57;;;1.10;99.90;;;;;;5057247;28;21072;-86
2023/11/30 10:04:17;;;;;;;9.83;6.13;;;1.10;99.90;;;;;;5058046;28;20027;-87
2023/11/30 10:06:46;;;;;;;34.57;8.07;;;1.10;99.90;;;;;;5060355;28;20384;-85
2023/11/30 10:09:12;;;;;;;43.90;7.67;;;1.10;99.90;;;;;;5065642;28;20124;-85
2023/11/30 10:11:40;;;;;;;25.70;7.23;;;1.10;99.90;;;;;;5066723;28;20108;-81
2023/11/30 10:14:06;;;;;;;33.60;6.57;;;1.20;99.90;;;;;;5064230;28;20082;-87
2023/11/30 10:16:32;;;;;;;13.80;5.63;;;1.20;99.90;;;;;;5059020;28;20912;-88
2023/11/30 10:18:57;;;;;;;13.07;6.03;;;1.10;99.90;;;;;;5057903;28;20035;-90
2023/11/30 10:21:23;;;;;;;17.83;6.20;;;1.10;99.90;;;;;;5058577;28;20066;-89
2023/11/30 10:23:48;;;;;;;15.50;5.80;;;1.10;99.90;;;;;;5060171;28;20073;-89
2023/11/30 10:26:16;;;;;;;12.13;6.93;;;1.10;99.90;;;;;;5057447;28;20230;-88
2023/11/30 10:28:42;;;;;;;13.80;6.40;;;1.10;99.90;;;;;;5057345;28;20448;-89
2023/11/30 10:31:09;;;;;;;15.57;7.57;;;1.10;99.90;;;;;;5058952;28;20147;-87
2023/11/30 10:33:37;;;;;;;22.97;7.40;;;1.10;99.90;;;;;;5058296;28;20029;-87
2023/11/30 10:36:05;;;;;;;42.70;8.50;;;1.10;99.90;;;;;;5058481;28;20020;-88
2023/11/30 10:38:36;;;;;;;33.70;9.67;;;1.10;99.90;;;;;;5058157;28;20035;-89
2023/11/30 10:41:09;;;;;;;19.60;6.27;;;1.10;99.90;;;;;;5058942;28;20093;-88
2023/11/30 10:43:37;;;;;;;14.73;5.70;;;1.10;99.90;;;;;;5055840;28;21421;-90
2023/11/30 10:46:07;;;;;;;13.30;7.97;;;1.10;99.90;;;;;;5058040;28;20108;-88
2023/11/30 10:48:34;;;;;;;12.87;7.07;;;1.10;99.90;;;;;;5058787;28;20108;-88
2023/11/30 10:51:00;;;;;;;12.00;6.20;;;1.00;99.90;;;;;;5057450;28;20060;-87
2023/11/30 10:53:35;;;;;;;14.57;6.37;;;1.00;99.90;;;;;;5057472;28;20395;-87
2023/11/30 10:56:02;;;;;;;12.20;6.17;;;1.00;99.90;;;;;;5058311;28;20020;-88
2023/11/30 10:58:28;;;;;;;11.63;5.40;;;1.00;99.90;;;;;;5059773;28;20032;-88
2023/11/30 11:00:57;;;;;;;8.53;5.43;;;1.00;99.90;;;;;;5058006;28;20023;-88
2023/11/30 11:03:23;;;;;;;10.40;5.00;;;0.90;99.90;;;;;;5055721;28;20025;-88
2023/11/30 11:05:51;;;;;;;12.03;6.43;;;1.00;99.90;;;;;;5057870;28;20561;-87
2023/11/30 11:08:17;;;;;;;11.30;6.13;;;1.00;99.90;;;;;;5057794;28;20495;-87
2023/11/30 11:10:46;;;;;;;9.57;5.30;;;1.00;99.90;;;;;;5060607;28;20043;-85
2023/11/30 11:13:18;;;;;;;14.57;5.40;;;0.90;99.90;;;;;;5062680;28;20111;-85
2023/11/30 11:15:43;;;;;;;11.53;5.83;;;0.90;99.90;;;;;;5060622;28;20033;-87
2023/11/30 11:18:15;;;;;;;17.80;8.10;;;1.00;99.90;;;;;;5062238;28;20031;-85
2023/11/30 11:20:43;;;;;;;12.77;7.10;;;1.00;99.90;;;;;;5062935;28;20056;-85
2023/11/30 11:23:09;;;;;;;16.17;6.77;;;1.00;99.90;;;;;;5062019;28;20028;-85
2023/11/30 11:25:45;;;;;;;12.50;5.70;;;1.00;99.90;;;;;;5062454;28;20110;-85
2023/11/30 11:28:11;;;;;;;11.93;5.43;;;0.90;99.90;;;;;;5062940;28;20028;-85
2023/11/30 11:30:45;;;;;;;7.63;5.77;;;0.90;99.90;;;;;;5062579;28;20112;-84
2023/11/30 11:33:13;;;;;;;10.77;6.13;;;0.90;99.90;;;;;;5062982;28;20020;-84
2023/11/30 11:35:38;;;;;;;12.13;6.13;;;0.90;99.90;;;;;;5062089;28;20099;-85
2023/11/30 11:38:04;;;;;;;12.83;6.30;;;0.90;99.90;;;;;;5062246;28;20139;-84
2023/11/30 11:40:29;;;;;;;14.40;7.23;;;0.90;99.90;;;;;;5059985;28;20075;-84
2023/11/30 11:42:55;;;;;;;11.67;7.70;;;0.90;99.90;;;;;;5062982;28;20017;-84
2023/11/30 11:45:21;;;;;;;8.20;5.40;;;0.90;99.90;;;;;;5065784;28;20114;-83
2023/11/30 11:47:46;;;;;;;12.23;7.27;;;0.90;99.90;;;;;;5057280;28;20036;-85
2023/11/30 11:50:13;;;;;;;15.57;12.27;;;0.90;99.90;;;;;;5054951;28;20048;-84
2023/11/30 11:52:40;;;;;;;11.90;7.40;;;0.90;99.90;;;;;;5054822;28;20047;-84
2023/11/30 11:55:10;;;;;;;10.97;9.00;;;0.90;99.90;;;;;;5052699;28;20056;-84
2023/11/30 11:57:38;;;;;;;14.67;11.47;;;0.90;99.90;;;;;;5051423;28;20684;-84
2023/11/30 12:00:05;;;;;;;11.40;7.97;;;0.90;99.90;;;;;;5053315;28;20117;-82
2023/11/30 12:02:32;;;;;;;14.37;6.67;;;0.90;99.90;;;;;;5053134;28;20056;-85
2023/11/30 12:05:11;;;;;;;15.60;9.70;;;0.90;99.90;;;;;;5052730;28;20135;-83
2023/11/30 12:07:50;;;;;;;9.90;6.83;;;0.90;99.90;;;;;;5051183;28;20025;-84
2023/11/30 12:10:28;;;;;;;10.33;7.17;;;1.00;99.90;;;;;;5052600;28;20028;-84
2023/11/30 12:12:54;;;;;;;9.33;6.40;;;1.00;99.90;;;;;;5049705;28;20028;-84
2023/11/30 12:15:20;;;;;;;17.40;9.30;;;0.90;99.90;;;;;;5050697;28;20033;-84
2023/11/30 12:17:45;;;;;;;10.23;7.10;;;0.90;99.90;;;;;;5050956;28;21372;-83
2023/11/30 12:20:11;;;;;;;26.30;8.50;;;0.90;99.90;;;;;;5055401;28;21399;-84
2023/11/30 12:22:36;;;;;;;13.03;8.43;;;0.90;99.90;;;;;;5056561;28;20758;-84
2023/11/30 12:25:03;;;;;;;12.97;7.73;;;1.00;99.90;;;;;;5057752;28;21065;-83
2023/11/30 12:27:29;;;;;;;13.97;8.83;;;1.00;99.90;;;;;;5055857;28;20032;-84
2023/11/30 12:29:54;;;;;;;12.90;9.17;;;1.00;99.90;;;;;;5057094;28;20055;-84
2023/11/30 12:32:20;;;;;;;14.43;10.07;;;1.00;99.90;;;;;;5060141;28;20173;-84
2023/11/30 12:34:45;;;;;;;12.83;9.20;;;1.00;99.90;;;;;;5060374;28;20032;-84
2023/11/30 12:37:11;;;;;;;14.60;9.20;;;1.00;99.90;;;;;;5054313;28;20027;-85
2023/11/30 12:39:37;;;;;;;14.40;9.43;;;1.00;99.90;;;;;;5052715;28;20040;-83
2023/11/30 12:42:03;;;;;;;15.80;9.17;;;1.00;99.90;;;;;;5051573;28;20028;-84
2023/11/30 12:44:28;;;;;;;20.03;12.67;;;1.00;99.90;;;;;;5051858;28;20033;-85